This is the latest recevied weather packets stored in our database for station/object KF0KFL-13. If no packets are shown the sender has not sent any weather packets the latest 10 day(s).
| Time | Temp. | Humidity | Pressure | Rain* | Wind** | Luminosity | Snow |
|---|---|---|---|---|---|---|---|
| 1787393435 | 16.67° C | 93% | 1017 hPa | 0 mm | 0 m/s | 0 W/m² | - |
| 1787393383 | 16.67° C | 93% | 1017 hPa | 0 mm | 0 m/s | 0 W/m² | - |
| 1787393234 | 16.67° C | 93% | 1017 hPa | 0 mm | 0 m/s | 0 W/m² | - |
| 1787392004 | 16.67° C | 92% | 1017 hPa | 0 mm | 0 m/s | 0 W/m² | - |
| 1787390804 | 17.22° C | 90% | 1016.8 hPa | 0 mm | 0 m/s | 0 W/m² | - |
| 1787389607 | 17.78° C | 89% | 1016.8 hPa | 0 mm | 0 m/s | 0 W/m² | - |
| 1787389574 | 17.78° C | 89% | 1016.8 hPa | 0 mm | 0 m/s | 0 W/m² | - |
| 1787388407 | 17.78° C | 87% | 1016.9 hPa | 0 mm | 0 m/s | 0 W/m² | - |
| 1787388374 | 17.78° C | 87% | 1016.9 hPa | 0 mm | 0 m/s | 0 W/m² | - |
| 1787387203 | 17.78° C | 87% | 1016.7 hPa | 0 mm | 0 m/s | 0 W/m² | - |
| 1787387144 | 17.78° C | 87% | 1016.7 hPa | 0 mm | 0 m/s | 0 W/m² | - |
| 1787385944 | 18.33° C | 84% | 1016.7 hPa | 0 mm | 0 m/s | 0 W/m² | - |
| 1787384744 | 18.89° C | 83% | 1016.1 hPa | 0 mm | 0 m/s | 0 W/m² | - |
| 1787383907 | 18.33° C | 83% | 1016.1 hPa | 0 mm | 0 m/s | 0 W/m² | - |
| 1787383514 | 18.33° C | 83% | 1016.1 hPa | 0 mm | 0 m/s | 0 W/m² | - |
| 1787382284 | 18.33° C | 83% | 1015.9 hPa | 0 mm | 0 m/s | 0 W/m² | - |
| 1787381084 | 18.89° C | 84% | 1016 hPa | 0 mm | 0 m/s | 0 W/m² | - |
| 1787379854 | 19.44° C | 83% | 1016.1 hPa | 0 mm | 0 m/s | 0 W/m² | - |
| 1787378624 | 20° C | 81% | 1016.1 hPa | 0 mm | 0 m/s | 0 W/m² | - |
| 1787377394 | 20.56° C | 79% | 1016.4 hPa | 0 mm | 0 m/s | 0 W/m² | - |
| 1787376195 | 21.11° C | 78% | 1016.1 hPa | 0 mm | 0 m/s | 0 W/m² | - |
| 1787376164 | 21.11° C | 78% | 1016.1 hPa | 0 mm | 0 m/s | 0 W/m² | - |
| 1787374964 | 21.11° C | 78% | 1016.3 hPa | 0 mm | 0 m/s | 0 W/m² | - |
| 1787373764 | 21.11° C | 77% | 1016.1 hPa | 0 mm | 0 m/s | 0 W/m² | - |
| 1787372563 | 21.11° C | 79% | 1016.1 hPa | 0 mm | 0 m/s | 0 W/m² | - |
* Rain latest hour (hover to see other rain measurements)
** Current wind speed in m/s (hover to see current wind gust speed)